Time;durP1;ratioP1;P1;durP2;ratioP2;P2;SDS_P1;SDS_P2;PMS_P1;PMS_P2;Temp;Humidity;BMP_temperature;BMP_pressure;BME280_temperature;BME280_humidity;BME280_pressure;Samples;Min_cycle;Max_cycle;Signal;HPM_P1;HPM_P2
2021/06/04 00:00:42;;;;;;;5.47;4.30;;;;;;;;;;5050025;28;20511;-70
2021/06/04 00:03:17;;;;;;;6.75;4.10;;;;;;;;;;5034374;28;20060;-70
2021/06/04 00:05:46;;;;;;;4.47;4.00;;;;;;;;;;5034662;28;20484;-70
2021/06/04 00:08:14;;;;;;;5.65;4.05;;;;;;;;;;5034470;28;20050;-70
2021/06/04 00:10:43;;;;;;;5.32;3.95;;;;;;;;;;5033050;28;20120;-70
2021/06/04 00:13:12;;;;;;;4.15;3.78;;;;;;;;;;5034318;28;20470;-70
2021/06/04 00:15:39;;;;;;;4.30;3.90;;;;;;;;;;5034501;28;20085;-70
2021/06/04 00:18:06;;;;;;;7.20;3.97;;;;;;;;;;5034475;28;20072;-70
2021/06/04 00:20:33;;;;;;;4.78;4.15;;;;;;;;;;5034345;28;20500;-69
2021/06/04 00:23:00;;;;;;;5.68;3.55;;;;;;;;;;5034156;28;20104;-70
2021/06/04 00:25:26;;;;;;;4.65;3.97;;;;;;;;;;5034362;28;20084;-70
2021/06/04 00:27:53;;;;;;;5.03;3.80;;;;;;;;;;5034300;28;20084;-70
2021/06/04 00:30:20;;;;;;;6.60;3.88;;;;;;;;;;5032719;28;20045;-70
2021/06/04 00:32:46;;;;;;;4.03;3.63;;;;;;;;;;5033872;28;20041;-70
2021/06/04 00:35:13;;;;;;;5.15;4.32;;;;;;;;;;5032946;28;20137;-70
2021/06/04 00:37:40;;;;;;;4.50;4.10;;;;;;;;;;5014351;28;20057;-70
2021/06/04 00:40:19;;;;;;;7.15;4.00;;;;;;;;;;5014566;28;20042;-70
2021/06/04 00:42:46;;;;;;;4.95;4.20;;;;;;;;;;5013998;28;20050;-69
2021/06/04 00:45:17;;;;;;;4.95;4.00;;;;;;;;;;5014027;28;20477;-70
2021/06/04 00:47:43;;;;;;;4.47;4.07;;;;;;;;;;5014176;28;20049;-70
2021/06/04 00:50:13;;;;;;;4.75;4.13;;;;;;;;;;5013736;28;20092;-70
2021/06/04 00:52:40;;;;;;;4.95;4.07;;;;;;;;;;5013768;28;20077;-70
2021/06/04 00:55:14;;;;;;;6.00;3.47;;;;;;;;;;5012820;28;20046;-70
2021/06/04 00:57:40;;;;;;;11.15;4.45;;;;;;;;;;5012752;28;20504;-70
2021/06/04 01:00:14;;;;;;;4.70;3.90;;;;;;;;;;5013693;28;20188;-70
2021/06/04 01:02:41;;;;;;;4.72;4.20;;;;;;;;;;5017021;28;20440;-70
2021/06/04 01:05:09;;;;;;;4.85;4.32;;;;;;;;;;5033441;28;20077;-70
2021/06/04 01:07:41;;;;;;;4.28;3.50;;;;;;;;;;5033617;28;20187;-70
2021/06/04 01:10:28;;;;;;;4.85;4.25;;;;;;;;;;5032675;28;20085;-70
2021/06/04 01:12:55;;;;;;;4.00;3.60;;;;;;;;;;5032112;28;20623;-70
2021/06/04 01:15:31;;;;;;;5.65;4.05;;;;;;;;;;5032971;28;20058;-70
2021/06/04 01:18:09;;;;;;;4.13;3.72;;;;;;;;;;5031897;28;20085;-70
2021/06/04 01:20:37;;;;;;;4.70;4.20;;;;;;;;;;5032605;28;20450;-72
2021/06/04 01:23:26;;;;;;;6.97;4.68;;;;;;;;;;5028320;28;20046;-72
2021/06/04 01:26:00;;;;;;;3.78;3.42;;;;;;;;;;5013353;28;20057;-72
2021/06/04 01:28:43;;;;;;;6.45;4.00;;;;;;;;;;5012250;28;20563;-72
2021/06/04 01:31:28;;;;;;;5.28;3.38;;;;;;;;;;5011687;28;20078;-72
2021/06/04 01:34:17;;;;;;;8.13;4.22;;;;;;;;;;5013122;28;20060;-72
2021/06/04 01:36:56;;;;;;;4.47;4.05;;;;;;;;;;5012043;28;20089;-72
2021/06/04 01:39:28;;;;;;;6.47;4.32;;;;;;;;;;5011959;28;20049;-72
2021/06/04 01:41:56;;;;;;;5.22;4.10;;;;;;;;;;5012406;28;20077;-72
2021/06/04 01:44:28;;;;;;;4.78;3.95;;;;;;;;;;5011661;28;20062;-72
2021/06/04 01:47:02;;;;;;;5.82;4.22;;;;;;;;;;5013039;28;20054;-72
2021/06/04 01:49:31;;;;;;;4.15;3.78;;;;;;;;;;5018664;28;20103;-72
2021/06/04 01:52:07;;;;;;;6.05;4.47;;;;;;;;;;5015110;28;20092;-72
2021/06/04 01:54:38;;;;;;;5.57;3.83;;;;;;;;;;5031652;28;20056;-71
2021/06/04 01:57:28;;;;;;;5.22;4.20;;;;;;;;;;5031303;28;20057;-72
2021/06/04 01:59:55;;;;;;;4.63;4.22;;;;;;;;;;5025138;28;20412;-72
2021/06/04 02:02:29;;;;;;;4.95;4.45;;;;;;;;;;5011393;28;20509;-72
2021/06/04 02:04:56;;;;;;;4.70;4.30;;;;;;;;;;5012708;28;20088;-72
2021/06/04 02:07:26;;;;;;;5.25;4.50;;;;;;;;;;5011451;28;20485;-71
2021/06/04 02:09:54;;;;;;;4.72;3.90;;;;;;;;;;5011450;28;20050;-72
2021/06/04 02:12:21;;;;;;;4.97;4.25;;;;;;;;;;5012019;28;20085;-72
2021/06/04 02:14:53;;;;;;;6.20;4.10;;;;;;;;;;5012351;28;20137;-72
2021/06/04 02:17:38;;;;;;;4.75;4.35;;;;;;;;;;5011291;28;20089;-72
2021/06/04 02:20:22;;;;;;;6.65;4.28;;;;;;;;;;5011261;28;20131;-72
2021/06/04 02:22:58;;;;;;;5.30;3.90;;;;;;;;;;5027543;28;20053;-72
2021/06/04 02:25:47;;;;;;;5.35;4.22;;;;;;;;;;5029485;28;20080;-72
2021/06/04 02:28:19;;;;;;;6.25;4.68;;;;;;;;;;5030683;28;20092;-72
2021/06/04 02:30:48;;;;;;;6.93;4.75;;;;;;;;;;5030575;28;20085;-72
2021/06/04 02:33:22;;;;;;;4.88;4.25;;;;;;;;;;5030807;28;20056;-72
2021/06/04 02:36:04;;;;;;;5.15;4.65;;;;;;;;;;5027186;28;20577;-72
2021/06/04 02:38:38;;;;;;;7.07;4.85;;;;;;;;;;5010935;28;20085;-72
2021/06/04 02:41:19;;;;;;;5.15;4.55;;;;;;;;;;5010943;28;20050;-72
2021/06/04 02:43:57;;;;;;;5.28;4.38;;;;;;;;;;5025804;28;20092;-72
2021/06/04 02:46:31;;;;;;;5.82;5.22;;;;;;;;;;5011024;28;20086;-72
2021/06/04 02:48:58;;;;;;;5.85;4.80;;;;;;;;;;5026235;28;20129;-72
2021/06/04 02:51:30;;;;;;;9.15;5.05;;;;;;;;;;5026915;28;20077;-72
2021/06/04 02:54:01;;;;;;;5.93;4.40;;;;;;;;;;5014308;28;20092;-72
2021/06/04 02:56:34;;;;;;;5.65;4.65;;;;;;;;;;5031095;28;20408;-72
2021/06/04 02:59:05;;;;;;;;;;;;;;;;;;5016466;28;20100;-72
2021/06/04 03:01:33;;;;;;;5.60;4.25;;;;;;;;;;5015923;28;19922;-71
2021/06/04 03:04:02;;;;;;;6.50;4.70;;;;;;;;;;5015972;28;20049;-72
2021/06/04 03:06:32;;;;;;;6.10;4.65;;;;;;;;;;5015938;28;20053;-72
2021/06/04 03:09:00;;;;;;;6.07;5.00;;;;;;;;;;5015997;28;20421;-71
2021/06/04 03:11:30;;;;;;;4.53;4.18;;;;;;;;;;5018460;28;20073;-72
2021/06/04 03:13:58;;;;;;;4.95;4.47;;;;;;;;;;5034096;28;20049;-73
2021/06/04 03:16:25;;;;;;;5.43;4.60;;;;;;;;;;5035374;28;20508;-73
2021/06/04 03:18:56;;;;;;;5.63;5.13;;;;;;;;;;5035561;28;20447;-73
2021/06/04 03:21:25;;;;;;;5.70;5.18;;;;;;;;;;5035402;28;20077;-73
2021/06/04 03:23:52;;;;;;;8.75;5.00;;;;;;;;;;5035008;28;20103;-73
2021/06/04 03:26:22;;;;;;;7.70;4.90;;;;;;;;;;5035191;28;20092;-73
2021/06/04 03:28:52;;;;;;;6.82;5.30;;;;;;;;;;5034358;28;20486;-73
2021/06/04 03:31:20;;;;;;;5.70;5.05;;;;;;;;;;5035209;28;20107;-73
2021/06/04 03:33:47;;;;;;;6.57;4.80;;;;;;;;;;5035042;28;20049;-73
2021/06/04 03:36:17;;;;;;;7.72;5.43;;;;;;;;;;5035069;28;20081;-73
2021/06/04 03:38:45;;;;;;;5.22;4.55;;;;;;;;;;5035202;28;20088;-73
2021/06/04 03:41:13;;;;;;;8.25;5.45;;;;;;;;;;5034828;28;20045;-73
2021/06/04 03:43:40;;;;;;;8.65;5.45;;;;;;;;;;5034944;28;20053;-73
2021/06/04 03:46:07;;;;;;;6.95;5.70;;;;;;;;;;5034993;28;20084;-73
2021/06/04 03:48:34;;;;;;;6.05;5.47;;;;;;;;;;5034734;28;20566;-73
2021/06/04 03:51:26;;;;;;;6.47;5.13;;;;;;;;;;5034575;28;20049;-73
2021/06/04 03:53:53;;;;;;;6.53;4.43;;;;;;;;;;5034634;28;20139;-73
2021/06/04 03:56:20;;;;;;;6.53;5.82;;;;;;;;;;5034611;28;20085;-73
2021/06/04 03:58:47;;;;;;;7.45;4.93;;;;;;;;;;5034898;28;20076;-73
2021/06/04 04:01:20;;;;;;;9.95;6.20;;;;;;;;;;5034402;28;20080;-73
2021/06/04 04:03:47;;;;;;;7.43;5.40;;;;;;;;;;5017540;28;20049;-73
2021/06/04 04:06:14;;;;;;;6.65;5.63;;;;;;;;;;5034518;28;20077;-73
2021/06/04 04:08:40;;;;;;;6.40;5.32;;;;;;;;;;5034616;28;20104;-72
2021/06/04 04:11:07;;;;;;;7.03;5.40;;;;;;;;;;5034161;28;20480;-72
2021/06/04 04:13:33;;;;;;;7.90;5.68;;;;;;;;;;5034207;28;20100;-72
2021/06/04 04:16:00;;;;;;;5.82;5.22;;;;;;;;;;5034406;28;20129;-72
2021/06/04 04:18:27;;;;;;;6.20;5.30;;;;;;;;;;5034250;28;20114;-73
2021/06/04 04:20:56;;;;;;;6.03;5.50;;;;;;;;;;5034289;28;20096;-72
2021/06/04 04:23:31;;;;;;;5.60;5.00;;;;;;;;;;5033935;28;20084;-72
2021/06/04 04:25:58;;;;;;;5.95;5.35;;;;;;;;;;5034164;28;20567;-72
2021/06/04 04:28:28;;;;;;;7.00;5.45;;;;;;;;;;5034223;28;20095;-72
2021/06/04 04:30:55;;;;;;;6.57;5.97;;;;;;;;;;5034048;28;20084;-72
2021/06/04 04:33:22;;;;;;;9.20;5.72;;;;;;;;;;5034405;28;20424;-72
2021/06/04 04:35:49;;;;;;;6.88;5.30;;;;;;;;;;5032986;28;20077;-72
2021/06/04 04:38:21;;;;;;;6.45;5.85;;;;;;;;;;5034017;28;20092;-72
2021/06/04 04:40:58;;;;;;;8.18;6.80;;;;;;;;;;5033919;28;20085;-72
2021/06/04 04:43:26;;;;;;;6.68;5.05;;;;;;;;;;5033596;28;20397;-72
2021/06/04 04:45:52;;;;;;;5.82;5.25;;;;;;;;;;5034114;28;20050;-72
2021/06/04 04:48:19;;;;;;;5.18;4.68;;;;;;;;;;5033842;28;20164;-72
2021/06/04 04:50:46;;;;;;;6.80;6.00;;;;;;;;;;5033768;28;20100;-72
2021/06/04 04:53:12;;;;;;;6.85;4.80;;;;;;;;;;5033392;28;20084;-72
2021/06/04 04:55:40;;;;;;;7.00;5.25;;;;;;;;;;5033599;28;20053;-72
2021/06/04 04:58:08;;;;;;;5.78;5.03;;;;;;;;;;5033516;28;20512;-72
2021/06/04 05:00:37;;;;;;;9.90;4.93;;;;;;;;;;5033701;28;20475;-72
2021/06/04 05:03:04;;;;;;;5.25;4.68;;;;;;;;;;5033410;28;20088;-73
2021/06/04 05:05:31;;;;;;;5.75;5.07;;;;;;;;;;5033429;28;20049;-72
2021/06/04 05:07:58;;;;;;;6.18;4.57;;;;;;;;;;5033377;28;20077;-72
2021/06/04 05:10:25;;;;;;;5.07;4.57;;;;;;;;;;5033154;28;20092;-72
2021/06/04 05:12:52;;;;;;;5.30;4.80;;;;;;;;;;5033195;28;20092;-73
2021/06/04 05:15:25;;;;;;;6.15;5.25;;;;;;;;;;5032800;28;20045;-72
2021/06/04 05:17:52;;;;;;;;;;;;;;;;;;5033738;28;20092;-72
2021/06/04 05:20:19;;;;;;;7.00;4.88;;;;;;;;;;5033311;28;20307;-72
2021/06/04 05:22:46;;;;;;;5.38;4.88;;;;;;;;;;5032973;28;20050;-72
2021/06/04 05:25:15;;;;;;;5.20;4.75;;;;;;;;;;5033186;28;20461;-72
2021/06/04 05:27:42;;;;;;;8.15;6.00;;;;;;;;;;5041463;28;20056;-71
2021/06/04 05:30:13;;;;;;;7.43;5.63;;;;;;;;;;5058231;28;20029;-72
2021/06/04 05:32:40;;;;;;;6.57;5.63;;;;;;;;;;5058619;28;20041;-72
2021/06/04 05:35:08;;;;;;;5.82;4.97;;;;;;;;;;5058356;28;20056;-71
2021/06/04 05:37:35;;;;;;;5.95;4.72;;;;;;;;;;5058564;28;20053;-72
2021/06/04 05:40:08;;;;;;;6.53;4.72;;;;;;;;;;5058458;28;20041;-72
2021/06/04 05:42:35;;;;;;;5.90;5.38;;;;;;;;;;5058134;28;20036;-71
2021/06/04 05:45:02;;;;;;;5.68;5.03;;;;;;;;;;5058634;28;20041;-72
2021/06/04 05:47:29;;;;;;;6.22;5.57;;;;;;;;;;5058500;28;20029;-71
2021/06/04 05:49:55;;;;;;;5.63;5.13;;;;;;;;;;5058334;28;20030;-72
2021/06/04 05:52:22;;;;;;;7.25;5.32;;;;;;;;;;5058132;28;20034;-73
2021/06/04 05:54:49;;;;;;;6.47;5.50;;;;;;;;;;5058124;28;20032;-73
2021/06/04 05:57:16;;;;;;;6.05;5.22;;;;;;;;;;5058658;28;20030;-73
2021/06/04 05:59:42;;;;;;;5.65;5.05;;;;;;;;;;5058597;28;20034;-73
2021/06/04 06:02:09;;;;;;;4.90;4.50;;;;;;;;;;5057667;28;20030;-71
2021/06/04 06:04:36;;;;;;;6.10;4.93;;;;;;;;;;5058251;28;20113;-71
2021/06/04 06:07:03;;;;;;;5.53;5.03;;;;;;;;;;5058323;28;20026;-71
2021/06/04 06:09:34;;;;;;;7.30;5.70;;;;;;;;;;5058247;28;20033;-76
2021/06/04 06:12:01;;;;;;;7.97;5.60;;;;;;;;;;5045247;28;20041;-79
2021/06/04 06:14:28;;;;;;;7.20;5.90;;;;;;;;;;5019686;28;20041;-83
2021/06/04 06:16:54;;;;;;;6.53;5.93;;;;;;;;;;5055271;28;20040;-81
2021/06/04 06:19:21;;;;;;;5.72;4.80;;;;;;;;;;5022616;28;20140;-79
2021/06/04 06:21:50;;;;;;;6.00;4.88;;;;;;;;;;5056070;28;20034;-76
2021/06/04 06:24:17;;;;;;;5.50;5.00;;;;;;;;;;5023642;28;20041;-76
2021/06/04 06:26:44;;;;;;;6.50;5.18;;;;;;;;;;5057045;28;20064;-76
2021/06/04 06:29:12;;;;;;;5.50;5.00;;;;;;;;;;5040076;28;20032;-76
2021/06/04 06:31:43;;;;;;;5.28;4.78;;;;;;;;;;5056299;28;20076;-77
2021/06/04 06:34:10;;;;;;;6.05;5.45;;;;;;;;;;5056855;28;20092;-75
2021/06/04 06:36:39;;;;;;;4.82;4.32;;;;;;;;;;5054869;28;20034;-77
2021/06/04 06:39:17;;;;;;;6.00;5.40;;;;;;;;;;5038254;28;20056;-75
2021/06/04 06:41:47;;;;;;;5.25;4.68;;;;;;;;;;5054534;28;20032;-76
2021/06/04 06:44:14;;;;;;;5.45;4.75;;;;;;;;;;5071299;28;20041;-79
2021/06/04 06:46:41;;;;;;;6.13;4.57;;;;;;;;;;5055667;28;20040;-77
2021/06/04 06:49:08;;;;;;;8.02;5.60;;;;;;;;;;5042873;28;20052;-75
2021/06/04 06:51:37;;;;;;;5.60;4.97;;;;;;;;;;5028857;28;20050;-77
2021/06/04 06:54:06;;;;;;;5.88;5.20;;;;;;;;;;5029636;28;20045;-75
2021/06/04 06:56:34;;;;;;;6.22;5.53;;;;;;;;;;5024987;28;20085;-74
2021/06/04 06:59:00;;;;;;;6.82;4.80;;;;;;;;;;5009050;28;20077;-74
2021/06/04 07:01:27;;;;;;;5.40;4.80;;;;;;;;;;5024743;28;20517;-74
2021/06/04 07:03:54;;;;;;;5.20;4.65;;;;;;;;;;5008456;28;20140;-75
2021/06/04 07:06:27;;;;;;;5.75;4.22;;;;;;;;;;5026528;28;20535;-74
2021/06/04 07:08:55;;;;;;;5.60;4.90;;;;;;;;;;5026158;28;20498;-72
2021/06/04 07:11:23;;;;;;;7.10;3.88;;;;;;;;;;5017510;28;20491;-73
2021/06/04 07:13:51;;;;;;;5.95;3.90;;;;;;;;;;5010329;28;20176;-72
2021/06/04 07:16:18;;;;;;;8.02;4.43;;;;;;;;;;5019703;28;20081;-72
2021/06/04 07:18:45;;;;;;;4.65;3.95;;;;;;;;;;5021803;28;20130;-74
2021/06/04 07:21:13;;;;;;;5.90;5.30;;;;;;;;;;5020041;28;20096;-75
2021/06/04 07:23:40;;;;;;;12.00;7.72;;;;;;;;;;5020804;28;20076;-75
2021/06/04 07:26:07;;;;;;;9.00;6.35;;;;;;;;;;5022498;28;20054;-72
2021/06/04 07:28:36;;;;;;;7.38;6.65;;;;;;;;;;5009003;28;20079;-72
2021/06/04 07:31:05;;;;;;;9.52;7.43;;;;;;;;;;5023208;28;20155;-74
2021/06/04 07:33:35;;;;;;;6.68;6.13;;;;;;;;;;5025350;28;20279;-74
2021/06/04 07:36:05;;;;;;;10.43;7.18;;;;;;;;;;5021133;28;20054;-73
2021/06/04 07:38:32;;;;;;;8.43;6.82;;;;;;;;;;5023451;28;20084;-74
2021/06/04 07:40:58;;;;;;;8.43;7.57;;;;;;;;;;5023727;28;20076;-74
2021/06/04 07:43:28;;;;;;;7.82;6.97;;;;;;;;;;5024747;28;20136;-73
2021/06/04 07:45:56;;;;;;;9.73;7.25;;;;;;;;;;5032159;28;20081;-74
2021/06/04 07:48:23;;;;;;;11.05;8.02;;;;;;;;;;5029983;28;20049;-73
2021/06/04 07:50:51;;;;;;;9.15;8.23;;;;;;;;;;5025947;28;20053;-73
2021/06/04 07:53:21;;;;;;;8.20;7.40;;;;;;;;;;5024545;28;20084;-73
2021/06/04 07:55:48;;;;;;;7.53;5.80;;;;;;;;;;5020007;28;20149;-71
2021/06/04 07:58:15;;;;;;;7.47;5.75;;;;;;;;;;5022180;28;20073;-74
2021/06/04 08:00:41;;;;;;;6.47;5.47;;;;;;;;;;5005109;28;20104;-72
2021/06/04 08:03:13;;;;;;;5.95;4.90;;;;;;;;;;5027119;28;20057;-71
2021/06/04 08:05:39;;;;;;;5.18;4.60;;;;;;;;;;5019005;28;20137;-69
2021/06/04 08:08:08;;;;;;;4.18;3.35;;;;;;;;;;5025581;28;20045;-70
2021/06/04 08:10:40;;;;;;;4.45;3.60;;;;;;;;;;5023380;28;20081;-71
2021/06/04 08:13:08;;;;;;;3.40;3.00;;;;;;;;;;5020308;28;20054;-71
2021/06/04 08:15:40;;;;;;;5.60;3.88;;;;;;;;;;5024230;28;20295;-72
2021/06/04 08:18:07;;;;;;;5.25;3.03;;;;;;;;;;5032138;28;20056;-70
2021/06/04 08:20:36;;;;;;;7.25;5.38;;;;;;;;;;5023468;28;20133;-70
2021/06/04 08:23:08;;;;;;;4.97;4.25;;;;;;;;;;5020448;28;20081;-72
2021/06/04 08:25:38;;;;;;;6.88;4.90;;;;;;;;;;5027120;28;20496;-72
2021/06/04 08:28:05;;;;;;;9.60;6.32;;;;;;;;;;5029489;28;20128;-69
2021/06/04 08:30:32;;;;;;;8.65;6.25;;;;;;;;;;5022805;28;20535;-70
2021/06/04 08:33:00;;;;;;;6.97;4.80;;;;;;;;;;5022876;28;20143;-73
2021/06/04 08:35:29;;;;;;;5.50;4.57;;;;;;;;;;5024876;28;20104;-72
2021/06/04 08:37:56;;;;;;;6.38;4.30;;;;;;;;;;5041219;28;20100;-69
2021/06/04 08:40:26;;;;;;;4.65;4.20;;;;;;;;;;5023506;28;20484;-70
2021/06/04 08:42:59;;;;;;;7.15;4.65;;;;;;;;;;5011640;28;20073;-70
2021/06/04 08:45:29;;;;;;;7.22;5.25;;;;;;;;;;5020209;28;20587;-70
2021/06/04 08:48:08;;;;;;;5.00;4.43;;;;;;;;;;5024001;28;20080;-73
2021/06/04 08:51:00;;;;;;;4.43;4.00;;;;;;;;;;5018774;28;20327;-76
2021/06/04 08:53:30;;;;;;;7.13;3.22;;;;;;;;;;5023051;28;20049;-74
2021/06/04 08:56:00;;;;;;;5.82;3.80;;;;;;;;;;5022987;28;20474;-72
2021/06/04 08:58:39;;;;;;;5.55;4.47;;;;;;;;;;5024369;28;20469;-69
2021/06/04 09:01:21;;;;;;;10.07;5.15;;;;;;;;;;5025118;28;20088;-69
2021/06/04 09:04:03;;;;;;;7.87;5.00;;;;;;;;;;5018772;28;20095;-69
2021/06/04 09:06:54;;;;;;;6.63;5.32;;;;;;;;;;5020231;28;20107;-69
2021/06/04 09:09:22;;;;;;;5.15;4.65;;;;;;;;;;5027461;28;20084;-69
2021/06/04 09:11:57;;;;;;;6.15;4.20;;;;;;;;;;5029418;28;20085;-70
2021/06/04 09:14:25;;;;;;;4.80;4.35;;;;;;;;;;5018581;28;20049;-69
2021/06/04 09:17:04;;;;;;;4.82;4.43;;;;;;;;;;5017923;28;20578;-69
2021/06/04 09:20:10;;;;;;;6.30;4.30;;;;;;;;;;5009195;28;20042;-69
2021/06/04 09:22:46;;;;;;;5.18;4.50;;;;;;;;;;5020443;28;20084;-69
2021/06/04 09:25:16;;;;;;;7.55;4.97;;;;;;;;;;5020452;28;20084;-69
2021/06/04 09:27:47;;;;;;;6.20;5.38;;;;;;;;;;5018870;28;20096;-69
2021/06/04 09:30:19;;;;;;;7.80;4.70;;;;;;;;;;5020375;28;20086;-70
2021/06/04 09:33:07;;;;;;;5.20;3.90;;;;;;;;;;5024862;28;20081;-69
2021/06/04 09:35:37;;;;;;;6.63;4.15;;;;;;;;;;5024738;28;20104;-69
2021/06/04 09:38:15;;;;;;;9.07;4.65;;;;;;;;;;5021797;28;20489;-69
2021/06/04 09:40:41;;;;;;;5.80;4.47;;;;;;;;;;5021263;28;20468;-69
2021/06/04 09:43:18;;;;;;;4.82;4.25;;;;;;;;;;5018492;28;20080;-69
2021/06/04 09:45:55;;;;;;;6.60;5.22;;;;;;;;;;5009431;28;20049;-69
2021/06/04 09:48:48;;;;;;;5.22;4.72;;;;;;;;;;5024177;28;20088;-69
2021/06/04 09:51:29;;;;;;;5.90;4.95;;;;;;;;;;5018570;28;20154;-69
2021/06/04 09:54:14;;;;;;;7.45;5.10;;;;;;;;;;5019881;28;20483;-69
2021/06/04 09:56:41;;;;;;;5.30;4.68;;;;;;;;;;5025315;28;20077;-69
2021/06/04 09:59:12;;;;;;;8.10;4.55;;;;;;;;;;5019749;28;20107;-69
2021/06/04 10:01:57;;;;;;;7.03;4.60;;;;;;;;;;5021485;28;20136;-69
2021/06/04 10:04:30;;;;;;;5.18;4.22;;;;;;;;;;5026218;28;20723;-69
2021/06/04 10:07:26;;;;;;;7.53;4.75;;;;;;;;;;5034947;28;20544;-70
2021/06/04 10:09:56;;;;;;;7.03;3.58;;;;;;;;;;5011755;28;20081;-69
2021/06/04 10:12:34;;;;;;;3.75;3.15;;;;;;;;;;5037617;28;20449;-69
2021/06/04 10:15:13;;;;;;;4.43;3.30;;;;;;;;;;5017484;28;20436;-69
2021/06/04 10:20:27;;;;;;;4.25;3.50;;;;;;;;;;5027845;28;20076;-69
2021/06/04 10:23:15;;;;;;;5.10;3.85;;;;;;;;;;5017434;28;20132;-69
2021/06/04 10:25:42;;;;;;;9.88;3.55;;;;;;;;;;5026279;28;20546;-69
2021/06/04 10:28:40;;;;;;;5.93;3.20;;;;;;;;;;5019606;28;20081;-69
2021/06/04 10:31:11;;;;;;;6.50;4.05;;;;;;;;;;5020899;28;20049;-69
2021/06/04 10:33:48;;;;;;;4.22;3.30;;;;;;;;;;5026472;28;20045;-69
2021/06/04 10:36:18;;;;;;;8.38;3.40;;;;;;;;;;5025667;28;20337;-69
2021/06/04 10:38:53;;;;;;;4.95;3.53;;;;;;;;;;5020526;28;20103;-72
2021/06/04 10:41:26;;;;;;;4.13;3.53;;;;;;;;;;5018745;28;20096;-69
2021/06/04 10:43:56;;;;;;;6.20;3.63;;;;;;;;;;5010865;28;20104;-69
2021/06/04 10:46:41;;;;;;;6.00;3.03;;;;;;;;;;5020987;28;20089;-68
2021/06/04 10:49:19;;;;;;;3.60;2.97;;;;;;;;;;5022753;28;20072;-69
2021/06/04 10:51:49;;;;;;;3.47;2.85;;;;;;;;;;5016301;28;20124;-68
2021/06/04 10:54:49;;;;;;;3.72;2.63;;;;;;;;;;5018600;28;20045;-69
2021/06/04 10:57:28;;;;;;;6.45;3.50;;;;;;;;;;5018527;28;20045;-68
2021/06/04 11:00:12;;;;;;;3.95;3.17;;;;;;;;;;5042791;28;20578;-69
2021/06/04 11:03:01;;;;;;;7.15;3.58;;;;;;;;;;5017458;28;20081;-69
2021/06/04 11:05:27;;;;;;;3.58;2.97;;;;;;;;;;5020330;28;20092;-68
2021/06/04 11:08:06;;;;;;;4.38;3.00;;;;;;;;;;5018492;28;20089;-68
2021/06/04 11:10:48;;;;;;;4.30;3.13;;;;;;;;;;5025172;28;20053;-68
2021/06/04 11:13:44;;;;;;;7.18;2.85;;;;;;;;;;5021262;28;20100;-69
2021/06/04 11:16:16;;;;;;;5.78;3.03;;;;;;;;;;5027213;28;20076;-68
2021/06/04 11:18:52;;;;;;;4.05;3.08;;;;;;;;;;5021658;28;20050;-69
2021/06/04 11:21:40;;;;;;;3.53;2.80;;;;;;;;;;5029116;28;20130;-68
2021/06/04 11:24:20;;;;;;;3.67;3.20;;;;;;;;;;5039376;28;20086;-69
2021/06/04 11:26:51;;;;;;;7.28;3.30;;;;;;;;;;5025140;28;20072;-70
2021/06/04 11:29:29;;;;;;;5.55;2.65;;;;;;;;;;5004734;28;20092;-71
2021/06/04 11:31:58;;;;;;;6.00;3.92;;;;;;;;;;5026524;28;20548;-71
2021/06/04 11:35:07;;;;;;;7.32;4.85;;;;;;;;;;5019360;28;20054;-71
2021/06/04 11:37:38;;;;;;;4.85;3.13;;;;;;;;;;5029948;28;20098;-74
2021/06/04 11:40:18;;;;;;;8.07;4.22;;;;;;;;;;5032211;28;20107;-72
2021/06/04 11:42:54;;;;;;;4.07;2.78;;;;;;;;;;5029596;28;20508;-73
2021/06/04 11:45:24;;;;;;;4.65;3.58;;;;;;;;;;5011414;28;20069;-72
2021/06/04 11:47:51;;;;;;;4.65;2.80;;;;;;;;;;5011726;28;20535;-70
2021/06/04 11:50:36;;;;;;;4.35;2.70;;;;;;;;;;5026638;28;20123;-70
2021/06/04 11:53:31;;;;;;;4.95;2.13;;;;;;;;;;5022957;28;20056;-70
2021/06/04 11:56:11;;;;;;;4.10;2.90;;;;;;;;;;5029420;28;20138;-71
2021/06/04 11:58:38;;;;;;;4.25;2.20;;;;;;;;;;5027664;28;20060;-71
2021/06/04 12:01:20;;;;;;;3.17;2.40;;;;;;;;;;5021710;28;20053;-72
2021/06/04 12:03:49;;;;;;;3.43;2.33;;;;;;;;;;5028183;28;20041;-72
2021/06/04 12:06:22;;;;;;;5.57;3.00;;;;;;;;;;5025993;28;20046;-70
2021/06/04 12:08:48;;;;;;;;;;;;;;;;;;5028078;28;20080;-70
2021/06/04 12:11:17;;;;;;;3.08;2.20;;;;;;;;;;5020031;28;19964;-71
2021/06/04 12:13:48;;;;;;;5.10;2.25;;;;;;;;;;5028430;28;20077;-72
2021/06/04 12:16:27;;;;;;;6.95;2.67;;;;;;;;;;5024950;28;20081;-70
2021/06/04 12:18:59;;;;;;;3.92;2.40;;;;;;;;;;5018841;28;20421;-71
2021/06/04 12:21:37;;;;;;;5.82;2.80;;;;;;;;;;5046182;28;20078;-71
2021/06/04 12:24:29;;;;;;;5.97;3.10;;;;;;;;;;5021709;28;20456;-71
2021/06/04 12:27:03;;;;;;;4.40;2.88;;;;;;;;;;5015661;28;20136;-71
2021/06/04 12:29:31;;;;;;;7.90;3.55;;;;;;;;;;5025701;28;20521;-70
2021/06/04 12:32:16;;;;;;;6.93;3.20;;;;;;;;;;5025515;28;20096;-71
2021/06/04 12:34:49;;;;;;;4.53;3.00;;;;;;;;;;5019723;28;20068;-71
2021/06/04 12:37:23;;;;;;;5.55;3.50;;;;;;;;;;5017898;28;20054;-71
2021/06/04 12:39:56;;;;;;;7.30;4.70;;;;;;;;;;5021113;28;20081;-71
2021/06/04 12:42:25;;;;;;;6.03;5.30;;;;;;;;;;5026051;28;20085;-71
2021/06/04 12:44:55;;;;;;;10.15;6.43;;;;;;;;;;5023931;28;20050;-71
2021/06/04 12:47:37;;;;;;;13.98;7.22;;;;;;;;;;5023431;28;20054;-71
2021/06/04 12:50:12;;;;;;;7.43;5.15;;;;;;;;;;5028805;28;20508;-71
2021/06/04 12:52:39;;;;;;;7.40;5.20;;;;;;;;;;5020013;28;20134;-71
2021/06/04 12:55:15;;;;;;;6.93;4.90;;;;;;;;;;5024244;28;20108;-71
2021/06/04 12:57:41;;;;;;;9.48;4.55;;;;;;;;;;5025892;28;20045;-71
2021/06/04 13:00:30;;;;;;;6.35;4.18;;;;;;;;;;5022848;28;20444;-71
2021/06/04 13:03:07;;;;;;;6.40;5.13;;;;;;;;;;5025004;28;20050;-73
2021/06/04 13:05:35;;;;;;;7.32;4.25;;;;;;;;;;5023591;28;20145;-73
2021/06/04 13:08:07;;;;;;;6.85;3.80;;;;;;;;;;5007839;28;20140;-74
2021/06/04 13:10:36;;;;;;;9.23;4.53;;;;;;;;;;5005608;28;20080;-74
2021/06/04 13:13:21;;;;;;;5.72;4.32;;;;;;;;;;5025058;28;20091;-74
2021/06/04 13:15:49;;;;;;;7.85;4.55;;;;;;;;;;5029433;28;20078;-74
2021/06/04 13:18:18;;;;;;;5.82;4.80;;;;;;;;;;5022986;28;20087;-74
2021/06/04 13:20:47;;;;;;;8.60;5.30;;;;;;;;;;5043612;28;20045;-74
2021/06/04 13:23:24;;;;;;;9.20;5.00;;;;;;;;;;5023099;28;20128;-74
2021/06/04 13:26:23;;;;;;;6.03;4.80;;;;;;;;;;5044578;28;20100;-74
2021/06/04 13:28:55;;;;;;;6.43;5.15;;;;;;;;;;5029224;28;20088;-74
2021/06/04 13:31:28;;;;;;;4.93;4.05;;;;;;;;;;5002879;28;20139;-74
2021/06/04 13:33:57;;;;;;;6.28;3.80;;;;;;;;;;5024876;28;20053;-74
2021/06/04 13:36:24;;;;;;;7.90;3.88;;;;;;;;;;5028412;28;20572;-74
2021/06/04 13:38:51;;;;;;;7.45;4.28;;;;;;;;;;5018589;28;20091;-73
2021/06/04 13:41:35;;;;;;;7.43;4.00;;;;;;;;;;5018692;28;20088;-73
2021/06/04 13:44:05;;;;;;;4.90;3.90;;;;;;;;;;5025007;28;20069;-73
2021/06/04 13:46:54;;;;;;;9.35;3.50;;;;;;;;;;5011952;28;20555;-73
2021/06/04 13:49:44;;;;;;;17.00;5.57;;;;;;;;;;5019879;28;20397;-72
2021/06/04 13:52:13;;;;;;;4.18;3.45;;;;;;;;;;5019827;28;20052;-77
2021/06/04 13:54:46;;;;;;;5.22;3.30;;;;;;;;;;5021018;28;20077;-76
2021/06/04 13:57:18;;;;;;;;;;;;;;;;;;5021548;28;20135;-75
2021/06/04 13:59:45;;;;;;;4.75;3.53;;;;;;;;;;5020540;28;19921;-74
2021/06/04 14:02:32;;;;;;;6.82;3.30;;;;;;;;;;5022231;28;20085;-71
2021/06/04 14:05:00;;;;;;;6.80;3.10;;;;;;;;;;5021219;28;20136;-73
2021/06/04 14:07:40;;;;;;;4.07;2.50;;;;;;;;;;5032082;28;20401;-75
2021/06/04 14:10:49;;;;;;;4.57;2.70;;;;;;;;;;4998724;28;20104;-74
2021/06/04 14:13:25;;;;;;;7.18;2.97;;;;;;;;;;5015809;28;20489;-72
2021/06/04 14:16:03;;;;;;;6.00;3.00;;;;;;;;;;5022021;28;20096;-75
2021/06/04 14:18:42;;;;;;;4.18;3.20;;;;;;;;;;5016267;28;20084;-72
2021/06/04 14:21:25;;;;;;;6.30;3.20;;;;;;;;;;5020005;28;20088;-71
2021/06/04 14:23:57;;;;;;;4.78;3.00;;;;;;;;;;5019663;28;20083;-70
2021/06/04 14:26:46;;;;;;;5.50;2.70;;;;;;;;;;5018521;28;20148;-70
2021/06/04 14:29:26;;;;;;;5.13;2.92;;;;;;;;;;5024088;28;20113;-72
2021/06/04 14:31:56;;;;;;;6.38;3.30;;;;;;;;;;5042761;28;20054;-71
2021/06/04 14:34:30;;;;;;;5.65;3.40;;;;;;;;;;5019909;28;20045;-73
2021/06/04 14:36:58;;;;;;;6.13;3.90;;;;;;;;;;5019325;28;20095;-71
2021/06/04 14:39:40;;;;;;;6.35;3.70;;;;;;;;;;5021380;28;20053;-71
2021/06/04 14:42:16;;;;;;;4.83;3.90;;;;;;;;;;5020808;28;20050;-72
2021/06/04 14:44:42;;;;;;;8.27;4.22;;;;;;;;;;5036509;28;20073;-71
2021/06/04 14:47:22;;;;;;;6.80;3.85;;;;;;;;;;5018300;28;20053;-71
2021/06/04 14:49:54;;;;;;;9.32;4.47;;;;;;;;;;5025221;28;20049;-72
2021/06/04 14:52:21;;;;;;;8.63;5.22;;;;;;;;;;5020010;28;20535;-70
2021/06/04 14:54:49;;;;;;;5.88;4.28;;;;;;;;;;5023778;28;20077;-71
2021/06/04 14:57:16;;;;;;;7.15;4.72;;;;;;;;;;5017699;28;20129;-70
2021/06/04 14:59:42;;;;;;;7.05;4.95;;;;;;;;;;5019967;28;20137;-70
2021/06/04 15:02:13;;;;;;;6.47;4.85;;;;;;;;;;5018312;28;20092;-71
2021/06/04 15:04:41;;;;;;;7.80;4.63;;;;;;;;;;5022974;28;20073;-72
2021/06/04 15:07:07;;;;;;;5.70;3.97;;;;;;;;;;5022228;28;20081;-72
2021/06/04 15:09:34;;;;;;;5.38;3.60;;;;;;;;;;5021781;28;20078;-71
2021/06/04 15:12:01;;;;;;;6.22;4.28;;;;;;;;;;5008890;28;20077;-72
2021/06/04 15:14:28;;;;;;;9.88;3.92;;;;;;;;;;5026316;28;20132;-72
2021/06/04 15:16:54;;;;;;;5.45;4.85;;;;;;;;;;5017708;28;20092;-72